sensor_id;sensor_type;location;lat;lon;timestamp;pressure;altitude;pressure_sealevel;temperature;humidity
27623;BME280;15041;45.334;5.622;2023-09-12T00:01:05;99027.59;;;24.18;54.69
27623;BME280;15041;45.334;5.622;2023-09-12T00:03:35;99025.03;;;24.25;54.73
27623;BME280;15041;45.334;5.622;2023-09-12T00:06:02;99022.34;;;24.13;53.97
27623;BME280;15041;45.334;5.622;2023-09-12T00:08:30;99024.50;;;24.35;53.06
27623;BME280;15041;45.334;5.622;2023-09-12T00:11:01;99010.28;;;24.33;53.90
27623;BME280;15041;45.334;5.622;2023-09-12T00:13:29;99010.53;;;24.28;53.72
27623;BME280;15041;45.334;5.622;2023-09-12T00:15:56;99008.84;;;24.39;52.70
27623;BME280;15041;45.334;5.622;2023-09-12T00:18:23;98997.78;;;24.39;53.37
27623;BME280;15041;45.334;5.622;2023-09-12T00:20:52;98984.47;;;24.41;53.23
27623;BME280;15041;45.334;5.622;2023-09-12T00:23:21;98983.28;;;24.58;52.78
27623;BME280;15041;45.334;5.622;2023-09-12T00:25:49;98981.06;;;24.63;49.47
27623;BME280;15041;45.334;5.622;2023-09-12T00:28:17;98982.66;;;24.64;49.50
27623;BME280;15041;45.334;5.622;2023-09-12T00:30:44;98982.03;;;24.55;50.23
27623;BME280;15041;45.334;5.622;2023-09-12T00:33:11;98970.75;;;24.60;50.06
27623;BME280;15041;45.334;5.622;2023-09-12T00:35:39;98964.06;;;24.30;50.22
27623;BME280;15041;45.334;5.622;2023-09-12T00:38:08;98965.69;;;24.16;51.29
27623;BME280;15041;45.334;5.622;2023-09-12T00:40:35;98969.31;;;24.35;50.75
27623;BME280;15041;45.334;5.622;2023-09-12T00:43:03;98973.31;;;24.07;52.32
27623;BME280;15041;45.334;5.622;2023-09-12T00:45:30;98971.75;;;23.78;53.52
27623;BME280;15041;45.334;5.622;2023-09-12T00:47:58;98981.34;;;23.68;57.92
27623;BME280;15041;45.334;5.622;2023-09-12T00:50:27;98976.03;;;23.48;59.39
27623;BME280;15041;45.334;5.622;2023-09-12T00:52:54;98962.31;;;23.36;59.55
27623;BME280;15041;45.334;5.622;2023-09-12T00:55:23;98955.59;;;23.49;58.65
27623;BME280;15041;45.334;5.622;2023-09-12T00:57:53;98944.63;;;23.37;59.26
27623;BME280;15041;45.334;5.622;2023-09-12T01:00:20;98931.09;;;23.59;57.91
27623;BME280;15041;45.334;5.622;2023-09-12T01:02:48;98927.66;;;23.78;56.63
27623;BME280;15041;45.334;5.622;2023-09-12T01:05:17;98934.66;;;23.60;57.81
27623;BME280;15041;45.334;5.622;2023-09-12T01:07:46;98929.22;;;23.63;58.13
27623;BME280;15041;45.334;5.622;2023-09-12T01:10:13;98932.00;;;23.79;57.77
27623;BME280;15041;45.334;5.622;2023-09-12T01:12:41;98934.38;;;23.10;59.88
27623;BME280;15041;45.334;5.622;2023-09-12T01:15:09;98922.09;;;23.47;58.41
27623;BME280;15041;45.334;5.622;2023-09-12T01:17:40;98918.56;;;23.62;57.33
27623;BME280;15041;45.334;5.622;2023-09-12T01:20:13;98909.53;;;23.77;56.98
27623;BME280;15041;45.334;5.622;2023-09-12T01:22:52;98909.50;;;23.61;57.98
27623;BME280;15041;45.334;5.622;2023-09-12T01:28:24;98906.19;;;23.40;58.98
27623;BME280;15041;45.334;5.622;2023-09-12T01:30:58;98909.59;;;23.22;59.74
27623;BME280;15041;45.334;5.622;2023-09-12T01:33:25;98911.56;;;23.37;59.38
27623;BME280;15041;45.334;5.622;2023-09-12T01:35:52;98916.25;;;23.48;58.73
27623;BME280;15041;45.334;5.622;2023-09-12T01:38:20;98930.31;;;23.59;58.08
27623;BME280;15041;45.334;5.622;2023-09-12T01:40:49;98949.06;;;23.26;59.47
27623;BME280;15041;45.334;5.622;2023-09-12T01:43:19;98955.25;;;23.23;59.67
27623;BME280;15041;45.334;5.622;2023-09-12T01:45:52;98969.88;;;23.39;59.48
27623;BME280;15041;45.334;5.622;2023-09-12T01:48:22;98969.47;;;23.25;60.70
27623;BME280;15041;45.334;5.622;2023-09-12T01:50:50;98972.31;;;23.40;59.78
27623;BME280;15041;45.334;5.622;2023-09-12T01:53:18;98975.59;;;23.46;59.12
27623;BME280;15041;45.334;5.622;2023-09-12T01:55:46;98976.03;;;23.48;59.22
27623;BME280;15041;45.334;5.622;2023-09-12T01:58:15;98963.25;;;23.28;59.62
27623;BME280;15041;45.334;5.622;2023-09-12T02:00:42;98961.28;;;23.40;58.45
27623;BME280;15041;45.334;5.622;2023-09-12T02:03:10;98952.50;;;23.11;59.04
27623;BME280;15041;45.334;5.622;2023-09-12T02:05:38;98956.38;;;23.34;57.18
27623;BME280;15041;45.334;5.622;2023-09-12T02:08:06;98940.94;;;23.45;55.31
27623;BME280;15041;45.334;5.622;2023-09-12T02:10:34;98946.06;;;23.31;54.91
27623;BME280;15041;45.334;5.622;2023-09-12T02:13:01;98936.31;;;23.21;54.94
27623;BME280;15041;45.334;5.622;2023-09-12T02:15:29;98942.38;;;23.27;54.16
27623;BME280;15041;45.334;5.622;2023-09-12T02:17:56;98938.63;;;23.47;53.21
27623;BME280;15041;45.334;5.622;2023-09-12T02:20:25;98936.13;;;23.42;53.07
27623;BME280;15041;45.334;5.622;2023-09-12T02:22:52;98932.91;;;23.40;52.41
27623;BME280;15041;45.334;5.622;2023-09-12T02:25:19;98936.13;;;23.42;53.73
27623;BME280;15041;45.334;5.622;2023-09-12T02:27:47;98945.66;;;23.05;55.32
27623;BME280;15041;45.334;5.622;2023-09-12T02:30:15;98952.59;;;22.87;56.73
27623;BME280;15041;45.334;5.622;2023-09-12T02:32:42;98962.00;;;22.74;58.04
27623;BME280;15041;45.334;5.622;2023-09-12T02:35:09;98964.75;;;22.74;57.84
27623;BME280;15041;45.334;5.622;2023-09-12T02:37:38;98973.25;;;22.69;57.54
27623;BME280;15041;45.334;5.622;2023-09-12T02:40:07;98966.47;;;22.66;57.98
27623;BME280;15041;45.334;5.622;2023-09-12T02:42:36;98975.72;;;22.98;56.30
27623;BME280;15041;45.334;5.622;2023-09-12T02:45:05;98973.44;;;23.00;56.44
27623;BME280;15041;45.334;5.622;2023-09-12T02:47:32;98979.63;;;22.97;57.27
27623;BME280;15041;45.334;5.622;2023-09-12T02:49:59;98970.22;;;22.98;58.50
27623;BME280;15041;45.334;5.622;2023-09-12T02:52:26;98972.97;;;22.98;58.13
27623;BME280;15041;45.334;5.622;2023-09-12T02:54:55;98960.16;;;22.78;58.01
27623;BME280;15041;45.334;5.622;2023-09-12T02:57:22;98961.50;;;22.96;56.86
27623;BME280;15041;45.334;5.622;2023-09-12T02:59:49;98963.34;;;23.04;55.83
27623;BME280;15041;45.334;5.622;2023-09-12T03:02:16;98963.09;;;23.21;54.27
27623;BME280;15041;45.334;5.622;2023-09-12T03:04:43;98960.84;;;22.87;55.22
27623;BME280;15041;45.334;5.622;2023-09-12T03:07:11;98963.59;;;22.87;56.67
27623;BME280;15041;45.334;5.622;2023-09-12T03:09:39;98962.63;;;23.07;56.06
27623;BME280;15041;45.334;5.622;2023-09-12T03:12:07;98971.78;;;23.11;55.56
27623;BME280;15041;45.334;5.622;2023-09-12T03:14:35;98969.94;;;23.15;54.76
27623;BME280;15041;45.334;5.622;2023-09-12T03:17:03;98977.50;;;23.18;54.63
27623;BME280;15041;45.334;5.622;2023-09-12T03:19:30;98977.13;;;22.92;54.60
27623;BME280;15041;45.334;5.622;2023-09-12T03:21:57;98974.78;;;23.06;53.61
27623;BME280;15041;45.334;5.622;2023-09-12T03:24:24;98973.38;;;23.12;53.59
27623;BME280;15041;45.334;5.622;2023-09-12T03:26:52;98972.13;;;23.09;52.89
27623;BME280;15041;45.334;5.622;2023-09-12T03:29:20;98979.13;;;23.07;53.38
27623;BME280;15041;45.334;5.622;2023-09-12T03:31:48;98974.34;;;23.04;52.87
27623;BME280;15041;45.334;5.622;2023-09-12T03:34:16;98969.50;;;23.13;52.47
27623;BME280;15041;45.334;5.622;2023-09-12T03:36:43;98970.63;;;23.12;52.55
27623;BME280;15041;45.334;5.622;2023-09-12T03:39:10;98963.53;;;23.11;52.55
27623;BME280;15041;45.334;5.622;2023-09-12T03:41:39;98976.88;;;22.97;55.17
27623;BME280;15041;45.334;5.622;2023-09-12T03:44:06;98972.25;;;23.13;55.02
27623;BME280;15041;45.334;5.622;2023-09-12T03:46:35;98970.63;;;23.12;54.39
27623;BME280;15041;45.334;5.622;2023-09-12T03:49:03;98963.38;;;22.80;55.04
27623;BME280;15041;45.334;5.622;2023-09-12T03:51:30;98970.88;;;22.55;57.99
27623;BME280;15041;45.334;5.622;2023-09-12T03:53:57;98957.66;;;22.73;58.14
27623;BME280;15041;45.334;5.622;2023-09-12T03:56:24;98969.31;;;22.82;57.44
27623;BME280;15041;45.334;5.622;2023-09-12T03:58:51;98968.56;;;22.69;57.60
27623;BME280;15041;45.334;5.622;2023-09-12T04:01:19;98971.31;;;22.69;58.44
27623;BME280;15041;45.334;5.622;2023-09-12T04:03:48;98968.66;;;22.61;59.19
27623;BME280;15041;45.334;5.622;2023-09-12T04:06:15;98974.84;;;22.22;61.04
27623;BME280;15041;45.334;5.622;2023-09-12T04:08:42;98974.03;;;22.45;60.58
27623;BME280;15041;45.334;5.622;2023-09-12T04:11:09;98979.91;;;22.32;61.75
27623;BME280;15041;45.334;5.622;2023-09-12T04:13:37;98976.44;;;22.35;61.32
27623;BME280;15041;45.334;5.622;2023-09-12T04:16:04;98973.91;;;22.18;62.34
27623;BME280;15041;45.334;5.622;2023-09-12T04:18:31;98975.75;;;22.26;61.30
27623;BME280;15041;45.334;5.622;2023-09-12T04:21:00;98973.34;;;22.24;61.84
27623;BME280;15041;45.334;5.622;2023-09-12T04:23:27;98983.97;;;21.90;64.32
27623;BME280;15041;45.334;5.622;2023-09-12T04:25:54;98985.69;;;21.62;66.02
27623;BME280;15041;45.334;5.622;2023-09-12T04:28:21;98979.13;;;21.87;63.71
27623;BME280;15041;45.334;5.622;2023-09-12T04:30:52;98983.50;;;22.00;63.13
27623;BME280;15041;45.334;5.622;2023-09-12T04:33:27;98976.63;;;21.82;64.73
27623;BME280;15041;45.334;5.622;2023-09-12T04:35:54;98975.91;;;21.85;64.59
27623;BME280;15041;45.334;5.622;2023-09-12T04:38:25;98971.34;;;21.89;64.60
27623;BME280;15041;45.334;5.622;2023-09-12T04:40:56;98964.00;;;21.81;65.20
27623;BME280;15041;45.334;5.622;2023-09-12T04:43:28;98956.03;;;22.00;63.44
27623;BME280;15041;45.334;5.622;2023-09-12T04:45:55;98957.75;;;21.92;63.16
27623;BME280;15041;45.334;5.622;2023-09-12T04:48:23;98963.91;;;21.57;64.95
27623;BME280;15041;45.334;5.622;2023-09-12T04:50:50;98976.75;;;21.65;66.49
27623;BME280;15041;45.334;5.622;2023-09-12T04:53:17;98968.03;;;21.63;66.50
27623;BME280;15041;45.334;5.622;2023-09-12T04:55:46;98972.56;;;21.47;66.94
27623;BME280;15041;45.334;5.622;2023-09-12T04:58:13;98974.44;;;21.02;69.58
27623;BME280;15041;45.334;5.622;2023-09-12T05:00:40;98976.91;;;20.95;70.17
27623;BME280;15041;45.334;5.622;2023-09-12T05:03:07;98972.84;;;21.01;69.77
27623;BME280;15041;45.334;5.622;2023-09-12T05:05:35;98979.03;;;21.30;68.21
27623;BME280;15041;45.334;5.622;2023-09-12T05:08:03;98980.97;;;21.30;68.38
27623;BME280;15041;45.334;5.622;2023-09-12T05:10:31;98979.50;;;21.12;68.56
27623;BME280;15041;45.334;5.622;2023-09-12T05:12:59;98969.28;;;21.00;69.67
27623;BME280;15041;45.334;5.622;2023-09-12T05:15:27;98974.94;;;21.16;68.85
27623;BME280;15041;45.334;5.622;2023-09-12T05:17:54;98972.28;;;21.28;68.22
27623;BME280;15041;45.334;5.622;2023-09-12T05:20:21;98979.50;;;21.12;68.83
27623;BME280;15041;45.334;5.622;2023-09-12T05:22:49;98987.81;;;21.24;68.13
27623;BME280;15041;45.334;5.622;2023-09-12T05:25:16;98976.66;;;21.41;67.05
27623;BME280;15041;45.334;5.622;2023-09-12T05:27:43;98978.03;;;21.35;67.06
27623;BME280;15041;45.334;5.622;2023-09-12T05:30:13;98993.81;;;21.38;67.01
27623;BME280;15041;45.334;5.622;2023-09-12T05:32:41;98999.72;;;21.28;66.28
27623;BME280;15041;45.334;5.622;2023-09-12T05:35:08;99007.16;;;21.07;68.01
27623;BME280;15041;45.334;5.622;2023-09-12T05:37:35;99012.31;;;21.29;67.25
27623;BME280;15041;45.334;5.622;2023-09-12T05:40:03;99009.03;;;21.15;67.06
27623;BME280;15041;45.334;5.622;2023-09-12T05:42:31;99014.19;;;21.37;65.77
27623;BME280;15041;45.334;5.622;2023-09-12T05:44:59;99010.81;;;21.31;65.94
27623;BME280;15041;45.334;5.622;2023-09-12T05:47:27;99011.50;;;21.49;65.28
27623;BME280;15041;45.334;5.622;2023-09-12T05:49:55;99010.50;;;21.65;64.05
27623;BME280;15041;45.334;5.622;2023-09-12T05:52:25;99009.59;;;21.61;63.92
27623;BME280;15041;45.334;5.622;2023-09-12T05:54:53;99018.78;;;21.45;64.71
27623;BME280;15041;45.334;5.622;2023-09-12T05:57:20;99029.56;;;21.09;66.33
27623;BME280;15041;45.334;5.622;2023-09-12T05:59:47;99033.75;;;21.15;66.58
27623;BME280;15041;45.334;5.622;2023-09-12T06:02:15;99027.03;;;21.04;66.70
27623;BME280;15041;45.334;5.622;2023-09-12T06:04:44;99032.66;;;21.28;66.39
27623;BME280;15041;45.334;5.622;2023-09-12T06:07:12;99027.97;;;21.49;65.27
27623;BME280;15041;45.334;5.622;2023-09-12T06:09:39;99017.91;;;21.32;65.21
27623;BME280;15041;45.334;5.622;2023-09-12T06:12:07;99020.88;;;21.48;64.36
27623;BME280;15041;45.334;5.622;2023-09-12T06:14:34;99025.69;;;21.51;66.05
27623;BME280;15041;45.334;5.622;2023-09-12T06:17:01;99036.00;;;21.54;66.11
27623;BME280;15041;45.334;5.622;2023-09-12T06:19:31;99032.81;;;21.52;65.82
27623;BME280;15041;45.334;5.622;2023-09-12T06:21:59;99036.81;;;21.34;68.72
27623;BME280;15041;45.334;5.622;2023-09-12T06:24:28;99053.28;;;21.54;66.40
27623;BME280;15041;45.334;5.622;2023-09-12T06:26:55;99050.47;;;21.42;67.92
27623;BME280;15041;45.334;5.622;2023-09-12T06:29:22;99054.28;;;21.50;68.18
27623;BME280;15041;45.334;5.622;2023-09-12T06:31:50;99065.41;;;21.33;70.17
27623;BME280;15041;45.334;5.622;2023-09-12T06:34:17;99078.59;;;21.19;71.55
27623;BME280;15041;45.334;5.622;2023-09-12T06:36:44;99077.66;;;21.15;72.32
27623;BME280;15041;45.334;5.622;2023-09-12T06:39:12;99079.47;;;21.11;72.53
27623;BME280;15041;45.334;5.622;2023-09-12T06:41:39;99085.06;;;20.94;74.33
27623;BME280;15041;45.334;5.622;2023-09-12T06:44:06;99082.22;;;21.11;73.17
27623;BME280;15041;45.334;5.622;2023-09-12T06:46:34;99096.75;;;21.11;74.03
27623;BME280;15041;45.334;5.622;2023-09-12T06:49:01;99082.13;;;21.19;73.03
27623;BME280;15041;45.334;5.622;2023-09-12T06:51:29;99080.94;;;21.29;72.13
27623;BME280;15041;45.334;5.622;2023-09-12T06:53:56;99089.31;;;21.32;72.21
27623;BME280;15041;45.334;5.622;2023-09-12T06:56:25;99081.53;;;21.14;73.90
27623;BME280;15041;45.334;5.622;2023-09-12T06:58:52;99086.50;;;21.41;72.64
27623;BME280;15041;45.334;5.622;2023-09-12T07:01:21;99095.19;;;21.43;73.03
27623;BME280;15041;45.334;5.622;2023-09-12T07:03:48;99094.41;;;21.63;72.31
27623;BME280;15041;45.334;5.622;2023-09-12T07:06:19;99086.38;;;21.58;73.77
27623;BME280;15041;45.334;5.622;2023-09-12T07:08:46;99091.41;;;21.56;76.11
27623;BME280;15041;45.334;5.622;2023-09-12T07:11:14;99092.00;;;21.61;76.85
27623;BME280;15041;45.334;5.622;2023-09-12T07:13:42;99091.31;;;21.73;75.75
27623;BME280;15041;45.334;5.622;2023-09-12T07:16:09;99088.25;;;21.86;76.21
27623;BME280;15041;45.334;5.622;2023-09-12T07:18:37;99079.50;;;22.05;73.78
27623;BME280;15041;45.334;5.622;2023-09-12T07:21:05;99077.34;;;22.10;66.90
27623;BME280;15041;45.334;5.622;2023-09-12T07:23:32;99069.50;;;22.33;61.41
27623;BME280;15041;45.334;5.622;2023-09-12T07:26:00;99072.28;;;22.45;59.79
27623;BME280;15041;45.334;5.622;2023-09-12T07:28:30;99072.78;;;22.59;57.26
27623;BME280;15041;45.334;5.622;2023-09-12T07:30:59;99059.69;;;22.68;56.90
27623;BME280;15041;45.334;5.622;2023-09-12T07:33:26;99059.22;;;22.78;54.84
27623;BME280;15041;45.334;5.622;2023-09-12T07:35:53;99053.28;;;22.88;52.50
27623;BME280;15041;45.334;5.622;2023-09-12T07:38:21;99067.25;;;22.95;51.83
27623;BME280;15041;45.334;5.622;2023-09-12T07:40:48;99074.81;;;22.98;52.23
27623;BME280;15041;45.334;5.622;2023-09-12T07:43:16;99070.34;;;23.05;52.46
27623;BME280;15041;45.334;5.622;2023-09-12T07:45:43;99070.66;;;23.16;53.93
27623;BME280;15041;45.334;5.622;2023-09-12T07:48:11;99071.84;;;23.27;53.09
27623;BME280;15041;45.334;5.622;2023-09-12T07:50:38;99075.16;;;23.32;51.33
27623;BME280;15041;45.334;5.622;2023-09-12T07:53:05;99061.97;;;23.38;50.34
27623;BME280;15041;45.334;5.622;2023-09-12T07:55:36;99065.13;;;23.52;50.23
27623;BME280;15041;45.334;5.622;2023-09-12T07:58:11;99069.44;;;23.65;49.50
27623;BME280;15041;45.334;5.622;2023-09-12T08:00:38;99077.19;;;23.75;49.17
27623;BME280;15041;45.334;5.622;2023-09-12T08:03:05;99067.06;;;23.79;49.08
27623;BME280;15041;45.334;5.622;2023-09-12T08:05:34;99068.88;;;23.87;48.78
27623;BME280;15041;45.334;5.622;2023-09-12T08:08:01;99071.06;;;23.94;48.92
27623;BME280;15041;45.334;5.622;2023-09-12T08:10:28;99067.00;;;24.03;49.31
27623;BME280;15041;45.334;5.622;2023-09-12T08:12:59;99060.19;;;24.13;48.58
27623;BME280;15041;45.334;5.622;2023-09-12T08:15:26;99070.34;;;24.24;47.71
27623;BME280;15041;45.334;5.622;2023-09-12T08:17:54;99063.22;;;24.23;47.50
27623;BME280;15041;45.334;5.622;2023-09-12T08:20:21;99066.53;;;24.44;47.58
27623;BME280;15041;45.334;5.622;2023-09-12T08:22:50;99062.81;;;24.52;48.03
27623;BME280;15041;45.334;5.622;2023-09-12T08:25:17;99070.00;;;24.57;47.05
27623;BME280;15041;45.334;5.622;2023-09-12T08:27:44;99061.19;;;24.51;47.09
27623;BME280;15041;45.334;5.622;2023-09-12T08:30:12;99061.38;;;24.58;47.18
27623;BME280;15041;45.334;5.622;2023-09-12T08:32:40;99067.59;;;24.55;48.17
27623;BME280;15041;45.334;5.622;2023-09-12T08:35:10;99057.19;;;24.64;47.90
27623;BME280;15041;45.334;5.622;2023-09-12T08:37:39;99060.16;;;24.71;48.10
27623;BME280;15041;45.334;5.622;2023-09-12T08:40:09;99068.44;;;24.71;47.64
27623;BME280;15041;45.334;5.622;2023-09-12T08:42:39;99073.59;;;24.73;47.84
27623;BME280;15041;45.334;5.622;2023-09-12T08:45:12;99073.66;;;24.76;47.89
27623;BME280;15041;45.334;5.622;2023-09-12T08:47:41;99070.47;;;24.74;47.74
27623;BME280;15041;45.334;5.622;2023-09-12T08:50:11;99077.69;;;24.79;48.40
27623;BME280;15041;45.334;5.622;2023-09-12T08:52:39;99072.00;;;24.72;48.51
27623;BME280;15041;45.334;5.622;2023-09-12T08:55:09;99073.84;;;24.83;48.42
27623;BME280;15041;45.334;5.622;2023-09-12T08:57:38;99073.28;;;24.93;48.59
27623;BME280;15041;45.334;5.622;2023-09-12T09:00:06;99083.97;;;25.10;48.46
27623;BME280;15041;45.334;5.622;2023-09-12T09:02:36;99083.50;;;25.24;47.71
27623;BME280;15041;45.334;5.622;2023-09-12T09:05:06;99092.13;;;25.22;47.31
27623;BME280;15041;45.334;5.622;2023-09-12T09:07:35;99088.06;;;25.16;47.74
27623;BME280;15041;45.334;5.622;2023-09-12T09:10:04;99092.34;;;25.48;46.86
27623;BME280;15041;45.334;5.622;2023-09-12T09:12:34;99089.81;;;25.40;45.83
27623;BME280;15041;45.334;5.622;2023-09-12T09:15:23;99099.19;;;25.35;45.95
27623;BME280;15041;45.334;5.622;2023-09-12T09:17:52;99095.34;;;25.24;46.66
27623;BME280;15041;45.334;5.622;2023-09-12T09:20:26;99093.69;;;25.54;45.92
27623;BME280;15041;45.334;5.622;2023-09-12T09:22:59;99092.03;;;25.88;46.18
27623;BME280;15041;45.334;5.622;2023-09-12T09:25:27;99098.53;;;25.95;45.04
27623;BME280;15041;45.334;5.622;2023-09-12T09:27:56;99102.91;;;25.96;44.81
27623;BME280;15041;45.334;5.622;2023-09-12T09:30:40;99100.56;;;25.98;44.53
27623;BME280;15041;45.334;5.622;2023-09-12T09:33:08;99106.00;;;26.14;44.13
27623;BME280;15041;45.334;5.622;2023-09-12T09:35:35;99108.81;;;26.36;44.21
27623;BME280;15041;45.334;5.622;2023-09-12T09:38:03;99111.03;;;26.27;44.28
27623;BME280;15041;45.334;5.622;2023-09-12T09:40:32;99106.00;;;26.55;43.64
27623;BME280;15041;45.334;5.622;2023-09-12T09:43:02;99098.41;;;26.71;43.82
27623;BME280;15041;45.334;5.622;2023-09-12T09:45:30;99108.03;;;26.77;42.09
27623;BME280;15041;45.334;5.622;2023-09-12T09:47:58;99102.38;;;26.96;42.16
27623;BME280;15041;45.334;5.622;2023-09-12T09:50:26;99099.44;;;26.86;42.82
27623;BME280;15041;45.334;5.622;2023-09-12T09:52:57;99097.22;;;26.95;42.70
27623;BME280;15041;45.334;5.622;2023-09-12T09:55:24;99093.81;;;27.05;43.10
27623;BME280;15041;45.334;5.622;2023-09-12T09:57:51;99090.53;;;26.73;42.97
27623;BME280;15041;45.334;5.622;2023-09-12T10:00:22;99094.53;;;26.76;44.04
27623;BME280;15041;45.334;5.622;2023-09-12T10:02:50;99084.16;;;26.95;42.38
27623;BME280;15041;45.334;5.622;2023-09-12T10:05:19;99087.81;;;26.99;42.55
27623;BME280;15041;45.334;5.622;2023-09-12T10:07:48;99089.88;;;27.06;41.81
27623;BME280;15041;45.334;5.622;2023-09-12T10:10:17;99081.63;;;27.09;42.06
27623;BME280;15041;45.334;5.622;2023-09-12T10:12:49;99081.41;;;26.95;43.39
27623;BME280;15041;45.334;5.622;2023-09-12T10:15:21;99080.53;;;26.91;42.97
27623;BME280;15041;45.334;5.622;2023-09-12T10:17:56;99085.16;;;27.06;43.00
27623;BME280;15041;45.334;5.622;2023-09-12T10:20:26;99071.53;;;27.20;43.80
27623;BME280;15041;45.334;5.622;2023-09-12T10:23:01;99076.94;;;27.39;42.79
27623;BME280;15041;45.334;5.622;2023-09-12T10:25:29;99066.06;;;27.27;44.28
27623;BME280;15041;45.334;5.622;2023-09-12T10:27:57;99068.31;;;27.44;42.05
27623;BME280;15041;45.334;5.622;2023-09-12T10:30:26;99072.56;;;27.38;42.15
27623;BME280;15041;45.334;5.622;2023-09-12T10:32:55;99061.88;;;27.66;41.97
27623;BME280;15041;45.334;5.622;2023-09-12T10:35:23;99057.22;;;27.77;41.62
27623;BME280;15041;45.334;5.622;2023-09-12T10:37:51;99063.72;;;27.85;41.41
27623;BME280;15041;45.334;5.622;2023-09-12T10:40:20;99069.41;;;27.95;40.88
27623;BME280;15041;45.334;5.622;2023-09-12T10:42:48;99057.59;;;28.05;41.12
27623;BME280;15041;45.334;5.622;2023-09-12T10:45:17;99057.38;;;27.88;42.16
27623;BME280;15041;45.334;5.622;2023-09-12T10:47:46;99057.44;;;27.91;41.50
27623;BME280;15041;45.334;5.622;2023-09-12T10:50:14;99051.22;;;28.01;42.01
27623;BME280;15041;45.334;5.622;2023-09-12T10:52:41;99040.69;;;27.81;41.81
27623;BME280;15041;45.334;5.622;2023-09-12T10:55:15;99044.19;;;28.11;40.99
27623;BME280;15041;45.334;5.622;2023-09-12T10:58:00;99043.69;;;27.72;43.99
27623;BME280;15041;45.334;5.622;2023-09-12T11:00:28;99048.84;;;28.03;41.18
27623;BME280;15041;45.334;5.622;2023-09-12T11:03:00;99049.31;;;28.09;41.25
27623;BME280;15041;45.334;5.622;2023-09-12T11:05:51;99048.84;;;28.03;42.51
27623;BME280;15041;45.334;5.622;2023-09-12T11:08:20;99047.84;;;27.85;43.60
27623;BME280;15041;45.334;5.622;2023-09-12T11:11:18;99044.31;;;27.88;41.99
27623;BME280;15041;45.334;5.622;2023-09-12T11:13:46;99045.66;;;28.01;42.54
27623;BME280;15041;45.334;5.622;2023-09-12T11:16:15;99039.91;;;27.84;43.17
27623;BME280;15041;45.334;5.622;2023-09-12T11:19:17;99034.91;;;27.96;42.98
27623;BME280;15041;45.334;5.622;2023-09-12T11:21:47;99036.50;;;28.37;41.99
27623;BME280;15041;45.334;5.622;2023-09-12T11:24:15;99035.34;;;28.38;41.41
27623;BME280;15041;45.334;5.622;2023-09-12T11:26:53;99036.97;;;28.43;41.44
27623;BME280;15041;45.334;5.622;2023-09-12T11:29:21;99032.81;;;28.66;41.17
27623;BME280;15041;45.334;5.622;2023-09-12T11:31:54;99024.09;;;28.64;41.27
27623;BME280;15041;45.334;5.622;2023-09-12T11:34:26;99035.78;;;28.40;42.31
27623;BME280;15041;45.334;5.622;2023-09-12T11:36:58;99024.72;;;28.44;42.05
27623;BME280;15041;45.334;5.622;2023-09-12T11:39:28;99024.47;;;28.63;45.60
27623;BME280;15041;45.334;5.622;2023-09-12T11:41:56;99023.44;;;28.85;42.61
27623;BME280;15041;45.334;5.622;2023-09-12T11:44:24;99017.50;;;28.83;42.66
27623;BME280;15041;45.334;5.622;2023-09-12T11:46:52;99018.22;;;28.77;43.19
27623;BME280;15041;45.334;5.622;2023-09-12T11:49:20;99014.72;;;28.87;42.26
27623;BME280;15041;45.334;5.622;2023-09-12T11:51:50;99023.06;;;28.87;42.16
27623;BME280;15041;45.334;5.622;2023-09-12T11:54:19;99020.75;;;28.96;42.54
27623;BME280;15041;45.334;5.622;2023-09-12T11:56:47;99018.09;;;29.10;42.24
27623;BME280;15041;45.334;5.622;2023-09-12T11:59:16;99018.22;;;29.34;41.32
27623;BME280;15041;45.334;5.622;2023-09-12T12:01:45;99007.06;;;29.24;42.01
27623;BME280;15041;45.334;5.622;2023-09-12T12:04:13;99011.03;;;29.30;41.91
27623;BME280;15041;45.334;5.622;2023-09-12T12:06:40;99022.91;;;29.20;41.53
27623;BME280;15041;45.334;5.622;2023-09-12T12:09:09;99005.84;;;29.25;41.38
27623;BME280;15041;45.334;5.622;2023-09-12T12:11:36;99007.81;;;29.21;41.63
27623;BME280;15041;45.334;5.622;2023-09-12T12:14:12;99003.84;;;29.22;41.96
27623;BME280;15041;45.334;5.622;2023-09-12T12:16:41;99007.88;;;29.35;42.05
27623;BME280;15041;45.334;5.622;2023-09-12T12:19:08;98993.75;;;29.61;41.13
27623;BME280;15041;45.334;5.622;2023-09-12T12:21:37;98998.25;;;29.15;41.96
27623;BME280;15041;45.334;5.622;2023-09-12T12:24:07;99002.75;;;29.40;41.97
27623;BME280;15041;45.334;5.622;2023-09-12T12:26:35;99002.19;;;29.07;42.38
27623;BME280;15041;45.334;5.622;2023-09-12T12:29:04;98995.22;;;29.48;41.36
27623;BME280;15041;45.334;5.622;2023-09-12T12:31:32;99005.53;;;29.33;41.60
27623;BME280;15041;45.334;5.622;2023-09-12T12:33:59;98996.69;;;29.17;42.77
27623;BME280;15041;45.334;5.622;2023-09-12T12:36:26;98994.06;;;29.56;41.54
27623;BME280;15041;45.334;5.622;2023-09-12T12:38:53;98997.34;;;29.72;41.76
27623;BME280;15041;45.334;5.622;2023-09-12T12:41:25;99001.75;;;29.80;41.64
27623;BME280;15041;45.334;5.622;2023-09-12T12:43:57;98991.84;;;29.93;41.11
27623;BME280;15041;45.334;5.622;2023-09-12T12:46:25;98987.41;;;29.71;41.58
27623;BME280;15041;45.334;5.622;2023-09-12T12:48:52;98983.41;;;29.58;42.32
27623;BME280;15041;45.334;5.622;2023-09-12T12:51:20;98990.31;;;29.20;43.40
27623;BME280;15041;45.334;5.622;2023-09-12T12:53:50;98989.00;;;29.65;41.67
27623;BME280;15041;45.334;5.622;2023-09-12T12:56:19;98988.06;;;29.47;42.27
27623;BME280;15041;45.334;5.622;2023-09-12T12:58:48;98979.31;;;29.38;42.80
27623;BME280;15041;45.334;5.622;2023-09-12T13:01:17;98976.19;;;29.50;42.73
27623;BME280;15041;45.334;5.622;2023-09-12T13:03:45;98972.63;;;29.53;42.33
27623;BME280;15041;45.334;5.622;2023-09-12T13:06:12;98972.97;;;29.48;42.46
27623;BME280;15041;45.334;5.622;2023-09-12T13:08:41;98969.41;;;29.44;42.76
27623;BME280;15041;45.334;5.622;2023-09-12T13:11:09;98970.56;;;29.43;42.66